Time;durP1;ratioP1;P1;durP2;ratioP2;P2;SDS_P1;SDS_P2;PMS_P1;PMS_P2;Temp;Humidity;BMP_temperature;BMP_pressure;BME280_temperature;BME280_humidity;BME280_pressure;Samples;Min_cycle;Max_cycle;Signal;HPM_P1;HPM_P2
2021/11/29 00:01:55;;;;;;;36.70;18.45;;;1.30;99.90;;;;;;5075576;28;20395;-58
2021/11/29 00:04:21;;;;;;;34.50;16.80;;;2.80;99.90;;;;;;5071934;28;20517;-53
2021/11/29 00:06:47;;;;;;;34.58;17.73;;;2.90;99.90;;;;;;5076488;28;20386;-60
2021/11/29 00:09:13;;;;;;;36.33;17.70;;;2.90;99.90;;;;;;5090568;28;20383;-53
2021/11/29 00:11:39;;;;;;;38.17;18.38;;;2.90;99.90;;;;;;5070182;28;20453;-53
2021/11/29 00:14:05;;;;;;;40.10;19.43;;;2.90;99.90;;;;;;5070234;28;20384;-53
2021/11/29 00:16:31;;;;;;;35.93;18.53;;;3.00;99.90;;;;;;5068498;28;20458;-55
2021/11/29 00:18:57;;;;;;;41.20;20.10;;;3.00;99.90;;;;;;5063823;28;20403;-53
2021/11/29 00:21:23;;;;;;;39.22;19.40;;;3.00;99.90;;;;;;5054443;28;20385;-52
2021/11/29 00:23:48;;;;;;;40.20;19.73;;;3.00;99.90;;;;;;5050877;28;20378;-58
2021/11/29 00:26:16;;;;;;;38.20;19.23;;;2.90;99.90;;;;;;5056539;28;20405;-53
2021/11/29 00:28:43;;;;;;;35.33;18.52;;;3.10;99.90;;;;;;5058634;28;20389;-53
2021/11/29 00:31:09;;;;;;;39.67;18.52;;;3.00;99.90;;;;;;5051398;28;20512;-53
2021/11/29 00:33:35;;;;;;;35.50;18.15;;;3.10;99.90;;;;;;5053510;28;20881;-53
2021/11/29 00:36:01;;;;;;;34.60;17.77;;;3.00;99.90;;;;;;5050846;28;20385;-53
2021/11/29 00:38:27;;;;;;;37.13;18.50;;;3.00;99.90;;;;;;5033584;28;20429;-53
2021/11/29 00:40:52;;;;;;;36.53;18.10;;;3.10;99.90;;;;;;5050377;28;20398;-55
2021/11/29 00:43:18;;;;;;;35.45;19.15;;;3.10;99.90;;;;;;5062424;28;20414;-53
2021/11/29 00:45:44;;;;;;;38.60;19.57;;;4.10;99.90;;;;;;5051559;28;20378;-55
2021/11/29 00:48:09;;;;;;;36.70;19.70;;;3.20;99.90;;;;;;5050646;28;20373;-55
2021/11/29 00:50:37;;;;;;;37.13;18.92;;;3.10;99.90;;;;;;5056488;28;20406;-55
2021/11/29 00:53:10;;;;;;;38.00;18.00;;;3.10;99.90;;;;;;5050897;28;20943;-55
2021/11/29 00:55:37;;;;;;;40.83;18.75;;;3.10;99.90;;;;;;5062905;28;20953;-53
2021/11/29 00:58:03;;;;;;;38.38;18.33;;;3.00;99.90;;;;;;5059083;28;20382;-56
2021/11/29 01:00:29;;;;;;;36.80;18.73;;;3.00;99.90;;;;;;5059810;28;20378;-55
2021/11/29 01:02:55;;;;;;;36.33;18.35;;;3.00;99.90;;;;;;5064323;28;20483;-55
2021/11/29 01:05:22;;;;;;;37.83;19.48;;;3.00;99.90;;;;;;5070116;28;20503;-55
2021/11/29 01:07:47;;;;;;;37.58;18.67;;;3.00;99.90;;;;;;5050943;28;21174;-56
2021/11/29 01:10:15;;;;;;;41.17;19.23;;;3.00;99.90;;;;;;5060681;28;20985;-54
2021/11/29 01:12:45;;;;;;;42.00;18.63;;;3.10;99.90;;;;;;5053256;28;20508;-54
2021/11/29 01:15:15;;;;;;;39.92;18.95;;;2.90;99.90;;;;;;5068087;28;20459;-55
2021/11/29 01:17:41;;;;;;;38.78;19.02;;;2.80;99.90;;;;;;5069986;28;20414;-54
2021/11/29 01:20:11;;;;;;;42.38;20.23;;;2.70;99.90;;;;;;5068494;28;20888;-54
2021/11/29 01:22:36;;;;;;;43.30;20.50;;;2.80;99.90;;;;;;5051567;28;20469;-55
2021/11/29 01:25:03;;;;;;;39.33;21.13;;;3.70;99.90;;;;;;5063345;28;20888;-54
2021/11/29 01:27:29;;;;;;;44.47;20.75;;;2.60;99.90;;;;;;5050628;28;20880;-54
2021/11/29 01:29:55;;;;;;;40.45;20.10;;;2.70;99.90;;;;;;5057377;28;20431;-55
2021/11/29 01:32:21;;;;;;;39.58;21.02;;;3.20;99.90;;;;;;5050538;28;20413;-54
2021/11/29 01:34:46;;;;;;;43.13;20.83;;;2.80;99.90;;;;;;5055893;28;20873;-55
2021/11/29 01:37:12;;;;;;;41.00;20.07;;;2.90;99.90;;;;;;5068887;28;20387;-54
2021/11/29 01:39:38;;;;;;;38.50;19.02;;;4.00;99.90;;;;;;5052215;28;20427;-55
2021/11/29 01:42:07;;;;;;;42.13;20.30;;;2.80;99.90;;;;;;5052576;28;20409;-52
2021/11/29 01:44:33;;;;;;;44.05;20.55;;;2.70;99.90;;;;;;5050206;28;20416;-55
2021/11/29 01:46:59;;;;;;;42.63;20.85;;;3.30;99.90;;;;;;5031270;28;20397;-53
2021/11/29 01:49:24;;;;;;;40.77;19.50;;;3.00;99.90;;;;;;5050022;28;20866;-54
2021/11/29 01:51:50;;;;;;;42.92;21.23;;;2.70;99.90;;;;;;5050035;28;20526;-53
2021/11/29 01:54:16;;;;;;;42.25;20.00;;;2.70;99.90;;;;;;5058249;28;20382;-54
2021/11/29 01:56:42;;;;;;;41.50;20.57;;;3.80;99.90;;;;;;5069492;28;20379;-53
2021/11/29 01:59:07;;;;;;;39.20;20.20;;;2.70;99.90;;;;;;5060537;28;20478;-53
2021/11/29 02:01:34;;;;;;;44.63;20.50;;;2.80;99.90;;;;;;5049779;28;20381;-53
2021/11/29 02:04:00;;;;;;;41.05;19.92;;;4.00;99.90;;;;;;5049631;28;20402;-53
2021/11/29 02:06:28;;;;;;;44.47;20.42;;;3.20;99.90;;;;;;5050361;28;20382;-53
2021/11/29 02:08:54;;;;;;;42.00;21.13;;;2.90;99.90;;;;;;5049346;28;20419;-59
2021/11/29 02:11:21;;;;;;;48.00;20.50;;;2.90;99.90;;;;;;5049554;28;20389;-53
2021/11/29 02:13:47;;;;;;;48.80;21.98;;;3.30;99.90;;;;;;5049636;28;20460;-55
2021/11/29 02:16:13;;;;;;;42.83;21.13;;;2.80;99.90;;;;;;5049179;28;20417;-53
2021/11/29 02:18:41;;;;;;;47.00;22.50;;;2.80;99.90;;;;;;5049794;28;20378;-53
2021/11/29 02:21:21;;;;;;;45.00;21.60;;;2.90;99.90;;;;;;5049097;28;20440;-53
2021/11/29 02:24:07;;;;;;;43.83;21.25;;;3.70;99.90;;;;;;5049672;28;20377;-53
2021/11/29 02:26:35;;;;;;;43.63;21.23;;;2.80;99.90;;;;;;5049695;28;20431;-53
2021/11/29 02:29:11;;;;;;;42.10;21.60;;;2.90;99.90;;;;;;5048280;28;20389;-53
2021/11/29 02:31:40;;;;;;;43.60;22.25;;;2.80;99.90;;;;;;5049505;28;20381;-53
2021/11/29 02:34:09;;;;;;;44.63;22.73;;;2.80;99.90;;;;;;5048861;28;20381;-53
2021/11/29 02:36:35;;;;;;;44.00;22.05;;;2.80;99.90;;;;;;5062330;28;20778;-53
2021/11/29 02:39:00;;;;;;;42.28;21.17;;;2.80;99.90;;;;;;5070067;28;20417;-54
2021/11/29 02:41:26;;;;;;;44.10;22.43;;;2.90;99.90;;;;;;5042420;28;20451;-54
2021/11/29 02:43:52;;;;;;;41.28;21.05;;;4.50;99.90;;;;;;5053343;28;20381;-53
2021/11/29 02:46:18;;;;;;;44.90;22.33;;;2.80;99.90;;;;;;5053032;28;20409;-53
2021/11/29 02:48:49;;;;;;;41.17;21.58;;;2.90;99.90;;;;;;5053542;28;20400;-53
2021/11/29 02:51:34;;;;;;;45.90;22.30;;;2.90;99.90;;;;;;5052684;28;20384;-53
2021/11/29 02:54:24;;;;;;;47.55;23.65;;;2.80;99.90;;;;;;5047446;28;20900;-54
2021/11/29 02:56:53;;;;;;;43.17;21.58;;;2.80;99.90;;;;;;5046173;28;20425;-54
2021/11/29 02:59:25;;;;;;;44.05;21.95;;;2.70;99.90;;;;;;5052385;28;21282;-53
2021/11/29 03:01:53;;;;;;;40.95;21.48;;;2.70;99.90;;;;;;5053309;28;20435;-54
2021/11/29 03:04:23;;;;;;;41.15;21.73;;;2.70;99.90;;;;;;5052100;28;20890;-53
2021/11/29 03:06:49;;;;;;;45.53;23.00;;;2.40;99.90;;;;;;5053085;28;20393;-54
2021/11/29 03:09:15;;;;;;;45.25;23.10;;;2.30;99.90;;;;;;5034048;28;21199;-53
2021/11/29 03:11:41;;;;;;;43.03;21.88;;;2.60;99.90;;;;;;5052814;28;20421;-53
2021/11/29 03:14:08;;;;;;;40.63;21.70;;;2.30;99.90;;;;;;5052178;28;20387;-53
2021/11/29 03:16:34;;;;;;;43.00;22.58;;;2.30;99.90;;;;;;5052640;28;20473;-53
2021/11/29 03:19:00;;;;;;;43.28;22.45;;;3.00;99.90;;;;;;5052399;28;20390;-58
2021/11/29 03:21:27;;;;;;;38.30;20.23;;;3.60;99.90;;;;;;5053070;28;20722;-53
2021/11/29 03:23:59;;;;;;;38.83;20.98;;;2.50;99.90;;;;;;5053727;28;20875;-53
2021/11/29 03:26:27;;;;;;;39.65;20.27;;;2.30;99.90;;;;;;5068556;28;20465;-53
2021/11/29 03:28:55;;;;;;;40.03;21.55;;;2.20;99.90;;;;;;5054370;28;20381;-53
2021/11/29 03:31:23;;;;;;;42.20;22.67;;;2.90;99.90;;;;;;5052386;28;20378;-54
2021/11/29 03:33:49;;;;;;;42.67;23.27;;;2.30;99.90;;;;;;5052530;28;20952;-53
2021/11/29 03:36:16;;;;;;;39.20;20.75;;;2.40;99.90;;;;;;5051840;28;20473;-55
2021/11/29 03:38:42;;;;;;;37.55;20.15;;;2.40;99.90;;;;;;5052455;28;20989;-53
2021/11/29 03:41:09;;;;;;;33.97;18.67;;;3.00;99.90;;;;;;5051637;28;20400;-53
2021/11/29 03:43:35;;;;;;;36.50;18.33;;;2.50;99.90;;;;;;5052355;28;20391;-53
2021/11/29 03:46:01;;;;;;;35.83;17.25;;;2.70;99.90;;;;;;5051558;28;20479;-58
2021/11/29 03:48:27;;;;;;;37.73;19.27;;;2.60;99.90;;;;;;5051930;28;20866;-53
2021/11/29 03:50:52;;;;;;;31.50;17.05;;;2.50;99.90;;;;;;5052229;28;20460;-53
2021/11/29 03:53:18;;;;;;;31.50;17.35;;;2.90;99.90;;;;;;5051263;28;20401;-53
2021/11/29 03:55:44;;;;;;;33.63;17.52;;;2.40;99.90;;;;;;5051796;28;20835;-53
2021/11/29 03:58:10;;;;;;;31.13;16.27;;;3.20;99.90;;;;;;5050947;28;20382;-53
2021/11/29 04:00:36;;;;;;;35.72;17.80;;;3.60;99.90;;;;;;5051697;28;20417;-54
2021/11/29 04:03:02;;;;;;;32.25;17.05;;;2.40;99.90;;;;;;5051505;28;20740;-58
2021/11/29 04:05:28;;;;;;;33.92;17.42;;;2.40;99.90;;;;;;5051931;28;20472;-53
2021/11/29 04:07:54;;;;;;;33.47;18.37;;;2.60;99.90;;;;;;5051727;28;20409;-54
2021/11/29 04:10:21;;;;;;;34.70;18.02;;;2.60;99.90;;;;;;5051233;28;20402;-53
2021/11/29 04:12:46;;;;;;;33.80;17.58;;;2.50;99.90;;;;;;5052096;28;20504;-53
2021/11/29 04:15:12;;;;;;;34.72;18.15;;;2.80;99.90;;;;;;5051274;28;20481;-53
2021/11/29 04:17:41;;;;;;;35.43;17.90;;;2.50;99.90;;;;;;5052147;28;20412;-53
2021/11/29 04:20:09;;;;;;;34.30;17.25;;;3.20;99.90;;;;;;5050782;28;20381;-53
2021/11/29 04:22:36;;;;;;;31.02;16.73;;;2.50;99.90;;;;;;5051519;28;20399;-53
2021/11/29 04:25:07;;;;;;;34.60;17.13;;;2.50;99.90;;;;;;5050800;28;20729;-58
2021/11/29 04:27:34;;;;;;;34.92;18.40;;;2.50;99.90;;;;;;5051727;28;20388;-54
2021/11/29 04:30:05;;;;;;;35.80;17.50;;;2.50;99.90;;;;;;5051152;28;20738;-53
2021/11/29 04:32:31;;;;;;;33.00;17.35;;;2.40;99.90;;;;;;5051545;28;20461;-53
2021/11/29 04:34:57;;;;;;;35.58;17.73;;;2.40;99.90;;;;;;5054272;28;20395;-55
2021/11/29 04:37:23;;;;;;;36.97;18.17;;;2.40;99.90;;;;;;5051035;28;21062;-53
2021/11/29 04:39:48;;;;;;;36.95;17.50;;;2.50;99.90;;;;;;5051112;28;20374;-53
2021/11/29 04:42:14;;;;;;;35.77;18.27;;;2.50;99.90;;;;;;5050077;28;20792;-53
2021/11/29 04:44:40;;;;;;;35.17;17.25;;;2.50;99.90;;;;;;5051291;28;20397;-53
2021/11/29 04:47:05;;;;;;;32.28;16.73;;;2.60;99.90;;;;;;5050283;28;20854;-58
2021/11/29 04:49:31;;;;;;;38.63;17.53;;;2.60;99.90;;;;;;5064085;28;20410;-53
2021/11/29 04:51:57;;;;;;;35.60;18.20;;;2.40;99.90;;;;;;5070108;28;20408;-53
2021/11/29 04:54:22;;;;;;;32.70;17.92;;;2.40;99.90;;;;;;5069297;28;20576;-55
2021/11/29 04:56:49;;;;;;;39.40;17.97;;;2.30;99.90;;;;;;5070019;28;20482;-53
2021/11/29 04:59:15;;;;;;;34.75;17.80;;;2.40;99.90;;;;;;5050720;28;20749;-53
2021/11/29 05:01:41;;;;;;;37.20;18.58;;;3.60;99.90;;;;;;5069087;28;20379;-53
2021/11/29 05:04:07;;;;;;;36.47;16.85;;;2.30;99.90;;;;;;5069262;28;20459;-55
2021/11/29 05:06:35;;;;;;;37.38;17.95;;;2.20;99.90;;;;;;5069654;28;20455;-53
2021/11/29 05:09:01;;;;;;;36.78;17.67;;;2.20;99.90;;;;;;5069653;28;20396;-53
2021/11/29 05:11:26;;;;;;;38.47;18.25;;;2.30;99.90;;;;;;5069165;28;20399;-54
2021/11/29 05:13:52;;;;;;;36.73;18.03;;;2.40;99.90;;;;;;5075821;28;20441;-55
2021/11/29 05:16:18;;;;;;;38.58;18.25;;;2.30;99.90;;;;;;5084884;28;20449;-53
2021/11/29 05:18:43;;;;;;;36.13;17.17;;;2.40;99.90;;;;;;5075612;28;20472;-53
2021/11/29 05:21:09;;;;;;;37.00;17.60;;;2.40;99.90;;;;;;5070354;28;20737;-53
2021/11/29 05:23:34;;;;;;;38.10;18.10;;;2.30;99.90;;;;;;5069927;28;20968;-53
2021/11/29 05:26:00;;;;;;;43.70;18.17;;;3.60;99.90;;;;;;5070232;28;20462;-55
2021/11/29 05:28:26;;;;;;;37.38;17.58;;;2.30;99.90;;;;;;5069159;28;20386;-53
2021/11/29 05:30:51;;;;;;;35.97;18.87;;;2.20;99.90;;;;;;5070359;28;20388;-53
2021/11/29 05:33:17;;;;;;;38.75;17.70;;;2.20;99.90;;;;;;5069468;28;20753;-53
2021/11/29 05:35:43;;;;;;;39.88;18.75;;;4.00;99.90;;;;;;5070225;28;20372;-53
2021/11/29 05:38:08;;;;;;;33.00;16.03;;;2.60;99.90;;;;;;5069025;28;20402;-58
2021/11/29 05:40:34;;;;;;;40.78;19.27;;;2.20;99.90;;;;;;5069834;28;20873;-53
2021/11/29 05:43:00;;;;;;;36.17;18.10;;;2.10;99.90;;;;;;5077210;28;20378;-53
2021/11/29 05:45:25;;;;;;;35.97;18.07;;;2.20;99.90;;;;;;5057871;28;20400;-53
2021/11/29 05:47:52;;;;;;;36.13;18.40;;;2.80;99.90;;;;;;5080314;28;20922;-54
2021/11/29 05:50:18;;;;;;;34.97;17.50;;;2.40;99.90;;;;;;5069193;28;20395;-53
2021/11/29 05:52:44;;;;;;;42.63;19.00;;;2.40;99.90;;;;;;5082430;28;20452;-53
2021/11/29 05:55:11;;;;;;;39.57;18.00;;;2.40;99.90;;;;;;5088530;28;20371;-57
2021/11/29 05:57:39;;;;;;;36.25;17.63;;;2.40;99.90;;;;;;5089424;28;20384;-53
2021/11/29 06:00:07;;;;;;;32.80;16.02;;;2.40;99.90;;;;;;5088965;28;20381;-54
2021/11/29 06:02:32;;;;;;;36.72;17.70;;;2.50;99.90;;;;;;5081329;28;20387;-53
2021/11/29 06:04:58;;;;;;;34.13;16.08;;;4.20;99.90;;;;;;5073009;28;20664;-53
2021/11/29 06:07:23;;;;;;;34.57;16.13;;;3.20;99.90;;;;;;5069325;28;20464;-53
2021/11/29 06:09:49;;;;;;;29.38;15.40;;;2.30;99.90;;;;;;5075175;28;20853;-53
2021/11/29 06:12:15;;;;;;;35.80;16.77;;;2.30;99.90;;;;;;5060968;28;20500;-53
2021/11/29 06:14:40;;;;;;;29.37;15.63;;;2.30;99.90;;;;;;5049336;28;20408;-54
2021/11/29 06:17:06;;;;;;;31.67;14.82;;;2.40;99.90;;;;;;5049370;28;20859;-53
2021/11/29 06:19:32;;;;;;;31.35;14.02;;;2.40;99.90;;;;;;5049180;28;20381;-53
2021/11/29 06:21:57;;;;;;;35.63;15.70;;;3.60;99.90;;;;;;5049552;28;20453;-53
2021/11/29 06:24:23;;;;;;;36.08;16.00;;;2.40;99.90;;;;;;5048826;28;20883;-54
2021/11/29 06:26:49;;;;;;;29.92;14.88;;;2.50;99.90;;;;;;5052964;28;20889;-53
2021/11/29 06:29:14;;;;;;;27.97;14.00;;;3.50;99.90;;;;;;5056037;28;20738;-53
2021/11/29 06:31:41;;;;;;;32.58;15.48;;;2.40;99.90;;;;;;5050416;28;20393;-53
2021/11/29 06:34:07;;;;;;;30.85;14.77;;;3.60;99.90;;;;;;5064746;28;20393;-58
2021/11/29 06:36:33;;;;;;;32.78;15.00;;;2.50;99.90;;;;;;5065791;28;20371;-53
2021/11/29 06:38:59;;;;;;;27.50;12.63;;;2.40;99.90;;;;;;5049172;28;20465;-53
2021/11/29 06:41:26;;;;;;;27.08;13.68;;;2.30;99.90;;;;;;5048308;28;20478;-55
2021/11/29 06:43:52;;;;;;;29.58;14.05;;;2.30;99.90;;;;;;5049489;28;20381;-53
2021/11/29 06:46:18;;;;;;;27.33;13.75;;;2.20;99.90;;;;;;5048732;28;20381;-53
2021/11/29 06:48:44;;;;;;;26.83;14.00;;;3.40;99.90;;;;;;5049496;28;20393;-53
2021/11/29 06:51:11;;;;;;;28.40;13.43;;;3.90;99.90;;;;;;5056567;28;20424;-59
2021/11/29 06:53:36;;;;;;;30.83;13.88;;;3.80;99.90;;;;;;5068527;28;20479;-53
2021/11/29 06:56:04;;;;;;;26.08;12.02;;;2.10;99.90;;;;;;5066810;28;20751;-53
2021/11/29 06:58:30;;;;;;;27.92;12.07;;;2.10;99.90;;;;;;5057830;28;20447;-53
2021/11/29 07:00:57;;;;;;;24.85;11.80;;;2.20;99.90;;;;;;5049382;28;20385;-53
2021/11/29 07:03:23;;;;;;;25.35;11.30;;;2.20;99.90;;;;;;5048733;28;20871;-58
2021/11/29 07:05:51;;;;;;;29.00;12.60;;;2.10;99.90;;;;;;5060007;28;20410;-54
2021/11/29 07:08:18;;;;;;;25.73;13.38;;;2.10;99.90;;;;;;5055832;28;20737;-53
2021/11/29 07:10:44;;;;;;;25.15;11.05;;;2.10;99.90;;;;;;5054885;28;20405;-55
2021/11/29 07:13:12;;;;;;;23.05;11.70;;;2.10;99.90;;;;;;5066947;28;20931;-58
2021/11/29 07:15:38;;;;;;;22.40;10.27;;;2.20;99.90;;;;;;5068468;28;20780;-53
2021/11/29 07:18:05;;;;;;;24.15;10.93;;;3.90;99.90;;;;;;5057542;28;20387;-53
2021/11/29 07:20:31;;;;;;;28.97;11.93;;;2.40;99.90;;;;;;5086004;28;20443;-54
2021/11/29 07:22:57;;;;;;;28.10;11.23;;;2.00;99.90;;;;;;5083180;28;20909;-54
2021/11/29 07:25:23;;;;;;;26.83;11.80;;;2.00;99.90;;;;;;5071664;28;20375;-53
2021/11/29 07:27:49;;;;;;;25.67;11.63;;;2.10;99.90;;;;;;5072637;28;20412;-53
2021/11/29 07:33:36;;;;;;;24.95;10.68;;;2.10;99.90;;;;;;5076326;28;20959;-53
2021/11/29 07:36:03;;;;;;;23.37;10.97;;;3.80;99.90;;;;;;5072036;28;20467;-54
2021/11/29 07:38:28;;;;;;;23.10;10.75;;;2.00;99.90;;;;;;5080931;28;20420;-54
2021/11/29 07:40:54;;;;;;;20.87;8.90;;;2.10;99.90;;;;;;5074809;28;20918;-56
2021/11/29 07:43:21;;;;;;;23.27;10.10;;;2.00;99.90;;;;;;5071371;28;20753;-53
2021/11/29 07:45:47;;;;;;;20.85;10.20;;;2.00;99.90;;;;;;5054284;28;20483;-53
2021/11/29 07:48:12;;;;;;;20.20;9.23;;;2.10;99.90;;;;;;5081151;28;20488;-58
2021/11/29 07:50:38;;;;;;;18.37;9.30;;;2.00;99.90;;;;;;5072461;28;20372;-55
2021/11/29 07:53:05;;;;;;;19.52;9.23;;;2.00;99.90;;;;;;5070360;28;20498;-53
2021/11/29 07:55:31;;;;;;;22.20;10.82;;;3.60;99.90;;;;;;5077903;28;20470;-53
2021/11/29 07:58:00;;;;;;;18.60;9.27;;;2.10;99.90;;;;;;5054657;28;20463;-53
2021/11/29 08:00:28;;;;;;;20.83;9.90;;;2.10;99.90;;;;;;5090373;28;20794;-52
2021/11/29 08:02:56;;;;;;;28.30;10.15;;;2.20;99.90;;;;;;5091135;28;20397;-53
2021/11/29 08:05:23;;;;;;;19.02;9.63;;;3.90;99.90;;;;;;5090439;28;20374;-53
2021/11/29 08:07:51;;;;;;;21.05;9.60;;;3.30;99.90;;;;;;5091129;28;20378;-53
2021/11/29 08:10:17;;;;;;;22.02;9.40;;;2.40;99.90;;;;;;5090211;28;20440;-57
2021/11/29 08:12:43;;;;;;;18.73;9.25;;;2.40;99.90;;;;;;5091128;28;20879;-53
2021/11/29 08:15:09;;;;;;;21.48;9.68;;;2.40;99.90;;;;;;5073719;28;20391;-53
2021/11/29 08:17:35;;;;;;;19.48;9.50;;;2.50;99.90;;;;;;5089508;28;20445;-53
2021/11/29 08:20:01;;;;;;;19.95;10.02;;;2.70;99.90;;;;;;5083168;28;20888;-55
2021/11/29 08:22:26;;;;;;;18.93;9.20;;;2.50;99.90;;;;;;5083766;28;20390;-53
2021/11/29 08:24:52;;;;;;;18.88;9.40;;;2.60;99.90;;;;;;5078127;28;20398;-54
2021/11/29 08:27:18;;;;;;;19.67;9.10;;;2.60;99.90;;;;;;5058637;28;20739;-53
2021/11/29 08:29:44;;;;;;;18.20;9.50;;;2.60;99.90;;;;;;5058197;28;20418;-54
2021/11/29 08:32:11;;;;;;;19.53;9.80;;;3.60;99.90;;;;;;5079393;28;20959;-55
2021/11/29 08:34:39;;;;;;;20.40;9.40;;;3.80;99.90;;;;;;5075258;28;20477;-55
2021/11/29 08:37:05;;;;;;;19.60;9.07;;;2.80;99.90;;;;;;5082383;28;20518;-53
2021/11/29 08:39:31;;;;;;;20.35;8.40;;;3.00;99.90;;;;;;5081773;28;20899;-53
2021/11/29 08:41:57;;;;;;;14.27;7.27;;;2.70;99.90;;;;;;5082807;28;20405;-53
2021/11/29 08:44:23;;;;;;;14.80;7.90;;;2.60;99.90;;;;;;5079500;28;20394;-53
2021/11/29 08:46:48;;;;;;;17.30;7.47;;;2.80;99.90;;;;;;5077966;28;20540;-53
2021/11/29 08:49:19;;;;;;;15.85;6.95;;;4.30;99.90;;;;;;5055632;28;20548;-58
2021/11/29 08:51:45;;;;;;;17.48;8.30;;;2.70;99.90;;;;;;5085776;28;20516;-52
2021/11/29 08:54:12;;;;;;;15.30;7.65;;;3.10;99.90;;;;;;5081654;28;20457;-55
2021/11/29 08:56:37;;;;;;;15.27;7.13;;;3.60;99.90;;;;;;5078218;28;20720;-55
2021/11/29 08:59:03;;;;;;;15.75;7.20;;;4.20;99.90;;;;;;5072047;28;20898;-53
2021/11/29 09:01:29;;;;;;;14.13;7.20;;;4.60;99.90;;;;;;5070359;28;20387;-52
2021/11/29 09:03:55;;;;;;;12.70;6.53;;;5.00;99.90;;;;;;5088291;28;20398;-52
2021/11/29 09:06:21;;;;;;;13.50;6.10;;;5.00;99.90;;;;;;5081350;28;20882;-53
2021/11/29 09:08:47;;;;;;;13.32;6.32;;;5.00;99.90;;;;;;5085171;28;20386;-55
2021/11/29 09:11:14;;;;;;;13.50;6.93;;;4.90;99.90;;;;;;5080418;28;20735;-53
2021/11/29 09:13:42;;;;;;;14.85;6.93;;;4.90;99.90;;;;;;5081899;28;20426;-52
2021/11/29 09:16:09;;;;;;;13.53;6.50;;;5.60;99.90;;;;;;5081346;28;20378;-54
2021/11/29 09:18:35;;;;;;;16.67;6.40;;;5.40;99.90;;;;;;5065905;28;20529;-54
2021/11/29 09:21:01;;;;;;;14.57;6.00;;;5.60;99.90;;;;;;5085954;28;20394;-54
2021/11/29 09:23:28;;;;;;;14.52;6.38;;;5.70;99.90;;;;;;5060699;28;20402;-55
2021/11/29 09:25:54;;;;;;;14.63;6.00;;;5.80;99.90;;;;;;5065109;28;20759;-52
2021/11/29 09:28:19;;;;;;;22.88;6.60;;;6.30;99.90;;;;;;5055106;28;20888;-57
2021/11/29 09:30:47;;;;;;;14.80;5.80;;;6.30;99.90;;;;;;5081765;28;20394;-54
2021/11/29 09:33:14;;;;;;;14.80;6.35;;;5.90;99.90;;;;;;5072651;28;20407;-54
2021/11/29 09:35:40;;;;;;;11.82;5.55;;;6.00;99.90;;;;;;5078062;28;20390;-53
2021/11/29 09:38:06;;;;;;;11.60;5.00;;;5.90;99.90;;;;;;5079607;28;20396;-52
2021/11/29 09:40:37;;;;;;;11.33;5.70;;;5.80;99.90;;;;;;5080308;28;20468;-54
2021/11/29 09:43:04;;;;;;;12.02;4.30;;;6.10;99.90;;;;;;5070134;28;20384;-52
2021/11/29 09:45:30;;;;;;;12.70;4.90;;;6.10;99.90;;;;;;5068192;28;20867;-52
2021/11/29 09:47:57;;;;;;;13.43;5.60;;;6.50;99.90;;;;;;5069552;28;20376;-52
2021/11/29 09:50:23;;;;;;;11.85;5.28;;;6.80;99.90;;;;;;5051020;28;20478;-51
2021/11/29 09:52:49;;;;;;;10.70;5.25;;;7.20;99.90;;;;;;5069211;28;20410;-52
2021/11/29 09:55:17;;;;;;;14.63;5.90;;;7.00;99.90;;;;;;5075350;28;20399;-54
2021/11/29 09:57:44;;;;;;;13.18;5.32;;;6.30;99.90;;;;;;5083080;28;20764;-54
2021/11/29 10:00:15;;;;;;;18.05;7.00;;;5.90;99.90;;;;;;5066694;28;22143;-57
2021/11/29 10:02:41;;;;;;;14.88;6.38;;;5.50;99.90;;;;;;5081168;28;20451;-54
2021/11/29 10:05:07;;;;;;;12.80;4.70;;;5.40;99.90;;;;;;5088943;28;20762;-54
2021/11/29 10:07:36;;;;;;;11.57;4.68;;;4.80;99.90;;;;;;5088194;28;20378;-53
2021/11/29 10:10:28;;;;;;;12.15;4.68;;;4.70;99.90;;;;;;5089142;28;20432;-54
2021/11/29 10:12:58;;;;;;;10.30;4.43;;;4.40;99.90;;;;;;5089057;28;20763;-53
2021/11/29 10:15:32;;;;;;;14.82;4.80;;;4.50;99.90;;;;;;5085061;28;20413;-54
2021/11/29 10:18:21;;;;;;;12.10;4.75;;;4.60;99.90;;;;;;5088830;28;20385;-54
2021/11/29 10:20:59;;;;;;;14.57;4.57;;;4.70;99.90;;;;;;5089335;28;20413;-54
2021/11/29 10:23:38;;;;;;;10.53;4.63;;;4.80;99.90;;;;;;5087865;28;20382;-54
2021/11/29 10:26:28;;;;;;;11.60;4.23;;;4.70;99.90;;;;;;5089065;28;20397;-53
2021/11/29 10:29:07;;;;;;;10.40;5.00;;;4.60;99.90;;;;;;5088949;28;20895;-54
2021/11/29 10:31:49;;;;;;;11.00;4.65;;;4.20;99.90;;;;;;5064251;28;20390;-55
2021/11/29 10:34:18;;;;;;;14.18;5.90;;;3.90;99.90;;;;;;5084322;28;20423;-54
2021/11/29 10:36:51;;;;;;;13.80;5.82;;;4.10;99.90;;;;;;5088391;28;20381;-54
2021/11/29 10:39:19;;;;;;;13.40;5.40;;;4.60;99.90;;;;;;5088876;28;20852;-54
2021/11/29 10:41:56;;;;;;;11.68;4.65;;;4.70;99.90;;;;;;5088836;28;20424;-54
2021/11/29 10:44:25;;;;;;;11.93;5.00;;;4.60;99.90;;;;;;5088416;28;20383;-58
2021/11/29 10:46:55;;;;;;;13.60;5.55;;;4.40;99.90;;;;;;5088799;28;20844;-54
2021/11/29 10:49:25;;;;;;;12.40;5.32;;;4.30;99.90;;;;;;5088216;28;20701;-58
2021/11/29 10:51:52;;;;;;;9.60;4.10;;;4.00;99.90;;;;;;5088835;28;20405;-55
2021/11/29 10:54:23;;;;;;;14.63;5.15;;;3.80;99.90;;;;;;5088369;28;20382;-54
2021/11/29 10:56:51;;;;;;;11.90;6.00;;;3.50;99.90;;;;;;5088590;28;20374;-54
2021/11/29 10:59:22;;;;;;;14.77;5.90;;;3.70;99.90;;;;;;5089819;28;20385;-53
2021/11/29 11:01:51;;;;;;;13.77;5.00;;;3.70;99.90;;;;;;5092252;28;20396;-55
2021/11/29 11:04:29;;;;;;;11.75;5.78;;;3.60;99.90;;;;;;5092401;28;20374;-54
2021/11/29 11:07:04;;;;;;;12.37;5.70;;;3.70;99.90;;;;;;5074131;28;20537;-54
2021/11/29 11:09:33;;;;;;;16.85;6.15;;;3.40;99.90;;;;;;5091346;28;20465;-54
2021/11/29 11:12:02;;;;;;;12.35;6.03;;;3.40;99.90;;;;;;5073640;28;20463;-54
2021/11/29 11:14:31;;;;;;;10.57;5.57;;;3.40;99.90;;;;;;5058387;28;21011;-54
2021/11/29 11:17:09;;;;;;;9.73;4.60;;;3.20;99.90;;;;;;5072906;28;20890;-54
2021/11/29 11:19:36;;;;;;;12.48;5.28;;;3.00;99.90;;;;;;5072258;28;20381;-51
2021/11/29 11:22:20;;;;;;;17.20;7.30;;;4.30;99.90;;;;;;5072842;28;20433;-54
2021/11/29 11:25:14;;;;;;;14.57;6.28;;;3.30;99.90;;;;;;5090939;28;20390;-54
2021/11/29 11:28:03;;;;;;;15.33;6.03;;;3.50;99.90;;;;;;5069232;28;20444;-54
2021/11/29 11:30:31;;;;;;;12.85;6.00;;;3.40;99.90;;;;;;5071411;28;20882;-54
2021/11/29 11:32:59;;;;;;;14.30;6.30;;;3.30;99.90;;;;;;5072504;28;20403;-54
2021/11/29 11:35:31;;;;;;;14.13;6.00;;;3.30;99.90;;;;;;5072082;28;20392;-58
2021/11/29 11:38:03;;;;;;;12.32;5.70;;;3.30;99.90;;;;;;5079540;28;20372;-54
2021/11/29 11:40:38;;;;;;;11.95;6.13;;;3.30;99.90;;;;;;5084432;28;20441;-54
2021/11/29 11:43:06;;;;;;;12.00;6.50;;;3.30;99.90;;;;;;5092045;28;20855;-55
2021/11/29 11:45:35;;;;;;;14.60;6.28;;;4.20;99.90;;;;;;5083403;28;20392;-54
2021/11/29 11:48:01;;;;;;;10.70;5.63;;;3.90;99.90;;;;;;5072281;28;20384;-54
2021/11/29 11:50:33;;;;;;;14.70;7.37;;;3.90;99.90;;;;;;5053549;28;20395;-59
2021/11/29 11:52:59;;;;;;;12.20;5.68;;;3.90;99.90;;;;;;5072094;28;20939;-54
2021/11/29 11:55:34;;;;;;;14.63;7.10;;;3.80;99.90;;;;;;5071164;28;20388;-59
2021/11/29 11:58:03;;;;;;;13.80;6.30;;;3.90;99.90;;;;;;5074630;28;20864;-54
2021/11/29 12:00:37;;;;;;;14.75;7.10;;;3.80;99.90;;;;;;5090843;28;20399;-55
2021/11/29 12:03:18;;;;;;;14.52;6.47;;;3.90;99.90;;;;;;5091794;28;20386;-54
2021/11/29 12:05:54;;;;;;;13.85;6.25;;;3.70;99.90;;;;;;5090729;28;20911;-54
2021/11/29 12:08:47;;;;;;;18.13;6.93;;;4.90;99.90;;;;;;5084573;28;20890;-54
2021/11/29 12:11:32;;;;;;;14.15;6.18;;;3.80;99.90;;;;;;5080477;28;20424;-54
2021/11/29 12:14:18;;;;;;;13.13;6.72;;;3.70;99.90;;;;;;5083681;28;20411;-54
2021/11/29 12:17:17;;;;;;;15.45;6.90;;;3.60;99.90;;;;;;5085790;28;20382;-54
2021/11/29 12:19:46;;;;;;;15.88;6.00;;;3.60;99.90;;;;;;5090302;28;20901;-54
2021/11/29 12:22:20;;;;;;;12.68;6.60;;;3.70;99.90;;;;;;5085593;28;20387;-54
2021/11/29 12:24:56;;;;;;;12.47;6.60;;;3.60;99.90;;;;;;5083686;28;20386;-56
2021/11/29 12:27:22;;;;;;;14.23;6.53;;;3.40;99.90;;;;;;5071937;28;20387;-54
2021/11/29 12:29:56;;;;;;;11.18;5.75;;;3.30;99.90;;;;;;5070744;28;20402;-53
2021/11/29 12:32:24;;;;;;;14.07;6.78;;;3.20;99.90;;;;;;5053596;28;20513;-53
2021/11/29 12:35:02;;;;;;;14.60;7.60;;;3.10;99.90;;;;;;5070602;28;20407;-53
2021/11/29 12:37:34;;;;;;;14.05;7.03;;;3.30;99.90;;;;;;5070796;28;20849;-57
2021/11/29 12:40:17;;;;;;;14.10;7.10;;;3.00;99.90;;;;;;5071252;28;20384;-52
2021/11/29 12:42:43;;;;;;;14.70;7.05;;;2.90;99.90;;;;;;5070349;28;20431;-53
2021/11/29 12:45:08;;;;;;;15.60;7.70;;;2.80;99.90;;;;;;5070874;28;20415;-53
2021/11/29 12:47:43;;;;;;;15.23;7.47;;;2.80;99.90;;;;;;5070344;28;20883;-52
2021/11/29 12:50:27;;;;;;;16.55;7.95;;;3.90;99.90;;;;;;5071145;28;20395;-54